createdAt,value
2023-04-16T00:02:12.416Z,4.90
2023-04-16T00:04:40.522Z,5.33
2023-04-16T00:07:08.781Z,5.75
2023-04-16T00:09:36.652Z,5.40
2023-04-16T00:12:06.159Z,5.67
2023-04-16T00:14:35.461Z,5.47
2023-04-16T00:17:03.409Z,6.17
2023-04-16T00:19:31.413Z,5.70
2023-04-16T00:21:59.379Z,5.63
2023-04-16T00:24:27.284Z,6.13
2023-04-16T00:26:56.017Z,5.37
2023-04-16T00:29:23.981Z,5.70
2023-04-16T00:31:53.337Z,6.03
2023-04-16T00:34:21.204Z,6.60
2023-04-16T00:36:49.141Z,5.77
2023-04-16T00:39:17.032Z,5.53
2023-04-16T00:41:45.075Z,6.33
2023-04-16T00:44:13.039Z,5.15
2023-04-16T00:46:41.988Z,5.33
2023-04-16T00:49:11.539Z,5.70
2023-04-16T00:51:39.562Z,5.50
2023-04-16T00:54:07.817Z,5.67
2023-04-16T00:56:36.936Z,5.30
2023-04-16T00:59:05.154Z,5.20
2023-04-16T01:01:33.245Z,6.00
2023-04-16T01:04:01.474Z,5.03
2023-04-16T01:06:30.927Z,5.57
2023-04-16T01:08:58.788Z,5.20
2023-04-16T01:11:26.901Z,5.20
2023-04-16T01:13:54.905Z,5.43
2023-04-16T01:16:22.981Z,5.23
2023-04-16T01:18:51.056Z,6.37
2023-04-16T01:21:20.364Z,5.67
2023-04-16T01:23:48.267Z,6.07
2023-04-16T01:26:16.392Z,5.93
2023-04-16T01:28:44.902Z,5.53
2023-04-16T01:31:12.867Z,5.70
2023-04-16T01:33:40.880Z,5.30
2023-04-16T01:36:09.019Z,5.30
2023-04-16T01:38:38.474Z,6.47
2023-04-16T01:41:06.417Z,5.83
2023-04-16T01:43:34.462Z,6.20
2023-04-16T01:46:14.686Z,5.70
2023-04-16T01:48:42.971Z,6.03
2023-04-16T01:51:11.224Z,6.33
2023-04-16T01:53:40.567Z,6.27
2023-04-16T01:56:08.772Z,5.73
2023-04-16T01:58:37.116Z,6.10
2023-04-16T02:01:05.925Z,5.43
2023-04-16T02:03:34.228Z,5.80
2023-04-16T02:06:02.361Z,5.93
2023-04-16T02:08:30.311Z,6.03
2023-04-16T02:10:59.712Z,6.37
2023-04-16T02:13:27.675Z,5.93
2023-04-16T02:15:55.721Z,6.33
2023-04-16T02:18:23.663Z,6.47
2023-04-16T02:20:51.612Z,5.87
2023-04-16T02:23:19.530Z,5.73
2023-04-16T02:25:48.477Z,6.27
2023-04-16T02:28:18.591Z,5.73
2023-04-16T02:30:46.512Z,6.00
2023-04-16T02:33:14.566Z,6.37
2023-04-16T02:35:42.489Z,5.77
2023-04-16T02:38:10.551Z,5.83
2023-04-16T02:40:38.525Z,6.10
2023-04-16T02:43:06.758Z,5.70
2023-04-16T02:45:36.128Z,5.80
2023-04-16T02:48:04.087Z,5.57
2023-04-16T02:50:32.079Z,6.23
2023-04-16T02:53:00.046Z,6.73
2023-04-16T02:55:29.545Z,5.33
2023-04-16T02:57:57.637Z,5.20
2023-04-16T03:00:25.717Z,6.43
2023-04-16T03:02:55.238Z,5.73
2023-04-16T03:05:23.346Z,5.77
2023-04-16T03:07:56.615Z,6.83
2023-04-16T03:10:25.137Z,6.50
2023-04-16T03:12:53.128Z,6.73
2023-04-16T03:15:21.093Z,5.87
2023-04-16T03:17:49.162Z,6.30
2023-04-16T03:20:19.156Z,6.30
2023-04-16T03:22:47.168Z,6.47
2023-04-16T03:25:15.407Z,6.67
2023-04-16T03:27:43.280Z,6.27
2023-04-16T03:30:12.983Z,6.63
2023-04-16T03:32:41.619Z,6.27
2023-04-16T03:35:10.773Z,5.93
2023-04-16T03:37:40.124Z,5.53
2023-04-16T03:40:09.078Z,6.57
2023-04-16T03:42:36.966Z,6.60
2023-04-16T03:45:05.434Z,6.80
2023-04-16T03:47:33.451Z,5.83
2023-04-16T03:50:01.427Z,6.10
2023-04-16T03:52:29.382Z,6.07
2023-04-16T03:54:58.680Z,6.10
2023-04-16T03:57:26.646Z,6.17
2023-04-16T03:59:54.537Z,6.23
2023-04-16T04:02:22.690Z,6.03
2023-04-16T04:04:50.844Z,5.93
2023-04-16T04:07:18.818Z,5.93
2023-04-16T04:09:46.789Z,6.53
2023-04-16T04:12:16.133Z,5.50
2023-04-16T04:14:44.091Z,6.27
2023-04-16T04:17:11.952Z,6.73
2023-04-16T04:19:47.165Z,6.75
2023-04-16T04:22:22.550Z,6.03
2023-04-16T04:24:50.513Z,6.27
2023-04-16T04:27:19.858Z,6.33
2023-04-16T04:29:47.849Z,6.67
2023-04-16T04:32:15.779Z,6.57
2023-04-16T04:34:43.740Z,6.73
2023-04-16T04:37:11.662Z,6.20
2023-04-16T04:39:39.639Z,5.93
2023-04-16T04:42:07.617Z,6.67
2023-04-16T04:44:36.911Z,6.77
2023-04-16T04:47:04.877Z,6.63
2023-04-16T04:49:33.350Z,5.70
2023-04-16T04:52:01.390Z,5.90
2023-04-16T04:54:29.995Z,5.63
2023-04-16T04:56:57.923Z,5.70
2023-04-16T04:59:26.783Z,6.77
2023-04-16T05:01:57.346Z,6.87
2023-04-16T05:04:25.250Z,5.97
2023-04-16T05:06:53.225Z,6.17
2023-04-16T05:09:21.266Z,6.23
2023-04-16T05:11:49.187Z,6.10
2023-04-16T05:14:17.135Z,6.55
2023-04-16T05:16:45.065Z,7.13
2023-04-16T05:19:14.439Z,6.53
2023-04-16T05:21:42.338Z,5.07
2023-04-16T05:24:10.248Z,5.83
2023-04-16T05:26:38.172Z,5.67
2023-04-16T05:29:06.085Z,5.93
2023-04-16T05:31:34.176Z,5.83
2023-04-16T05:34:02.183Z,5.97
2023-04-16T05:36:31.524Z,6.80
2023-04-16T05:38:59.420Z,5.60
2023-04-16T05:41:27.338Z,5.63
2023-04-16T05:43:55.198Z,5.50
2023-04-16T05:46:23.170Z,5.40
2023-04-16T05:48:51.126Z,5.40
2023-04-16T05:51:19.205Z,5.43
2023-04-16T05:53:48.589Z,5.77
2023-04-16T05:56:16.467Z,6.03
2023-04-16T05:58:44.846Z,5.37
2023-04-16T06:01:12.770Z,5.37
2023-04-16T06:03:40.781Z,5.70
2023-04-16T06:06:08.955Z,5.87
2023-04-16T06:08:36.948Z,6.10
2023-04-16T06:11:06.662Z,6.65
2023-04-16T06:13:34.633Z,6.53
2023-04-16T06:16:02.581Z,6.20
2023-04-16T06:18:30.576Z,5.70
2023-04-16T06:20:58.962Z,6.00
2023-04-16T06:23:26.906Z,5.73
2023-04-16T06:25:55.317Z,6.80
2023-04-16T06:28:24.677Z,6.67
2023-04-16T06:30:52.708Z,6.07
2023-04-16T06:33:20.724Z,6.23
2023-04-16T06:35:48.657Z,6.27
2023-04-16T06:38:16.722Z,5.40
2023-04-16T06:40:44.730Z,6.30
2023-04-16T06:43:12.895Z,6.57
2023-04-16T06:45:42.535Z,5.40
2023-04-16T06:48:10.433Z,5.97
2023-04-16T06:50:38.390Z,5.57
2023-04-16T06:53:06.314Z,6.13
2023-04-16T06:55:34.196Z,6.03
2023-04-16T06:58:02.125Z,5.85
2023-04-16T07:00:30.141Z,6.17
2023-04-16T07:03:01.260Z,5.73
2023-04-16T07:05:29.443Z,5.27
2023-04-16T07:07:57.682Z,6.07
2023-04-16T07:10:25.803Z,5.83
2023-04-16T07:12:53.807Z,6.73
2023-04-16T07:15:21.797Z,5.70
2023-04-16T07:17:49.753Z,5.97
2023-04-16T07:20:19.089Z,6.53
2023-04-16T07:22:47.155Z,5.37
2023-04-16T07:25:15.374Z,5.50
2023-04-16T07:27:43.298Z,6.67
2023-04-16T07:30:11.909Z,6.13
2023-04-16T07:32:39.925Z,6.30
2023-04-16T07:35:08.536Z,6.83
2023-04-16T07:37:37.834Z,6.37
2023-04-16T07:40:06.545Z,6.20
2023-04-16T07:42:34.552Z,6.20
2023-04-16T07:45:02.462Z,6.87
2023-04-16T07:47:30.510Z,6.90
2023-04-16T07:49:58.380Z,6.30
2023-04-16T07:52:26.825Z,5.27
2023-04-16T07:54:56.248Z,6.43
2023-04-16T07:57:24.129Z,6.90
2023-04-16T07:59:52.192Z,6.00
2023-04-16T08:02:20.577Z,6.17
2023-04-16T08:04:48.790Z,6.40
2023-04-16T08:07:16.860Z,6.53
2023-04-16T08:09:52.641Z,6.57
2023-04-16T08:12:22.495Z,7.50
2023-04-16T08:14:50.473Z,6.80
2023-04-16T08:17:18.473Z,6.03
2023-04-16T08:19:46.429Z,6.53
2023-04-16T08:22:14.724Z,5.80
2023-04-16T08:24:42.677Z,7.00
2023-04-16T08:27:18.488Z,6.67
2023-04-16T08:29:48.313Z,6.90
2023-04-16T08:32:16.400Z,7.00
2023-04-16T08:34:44.627Z,6.50
2023-04-16T08:37:12.575Z,7.37
2023-04-16T08:39:40.671Z,6.87
2023-04-16T08:42:15.293Z,7.10
2023-04-16T08:44:49.432Z,6.80
2023-04-16T08:47:19.002Z,7.00
2023-04-16T08:49:47.278Z,6.20
2023-04-16T08:52:20.940Z,6.07
2023-04-16T08:54:58.424Z,6.47
2023-04-16T08:57:31.637Z,6.73
2023-04-16T09:00:00.713Z,6.73
2023-04-16T09:02:31.053Z,6.50
2023-04-16T09:05:01.321Z,7.13
2023-04-16T09:07:30.984Z,6.90
2023-04-16T09:10:01.452Z,7.43
2023-04-16T09:12:29.545Z,7.40
2023-04-16T09:14:59.776Z,6.43
2023-04-16T09:17:29.441Z,7.43
2023-04-16T09:19:57.471Z,8.07
2023-04-16T09:22:25.528Z,11.20
2023-04-16T09:24:53.465Z,7.30
2023-04-16T09:27:24.718Z,7.07
2023-04-16T09:29:54.099Z,6.77
2023-04-16T09:32:27.758Z,7.17
2023-04-16T09:34:59.387Z,6.50
2023-04-16T09:37:29.823Z,7.13
2023-04-16T09:39:59.097Z,7.27
2023-04-16T09:42:28.808Z,7.20
2023-04-16T09:44:59.930Z,7.03
2023-04-16T09:47:41.960Z,6.37
2023-04-16T09:50:18.103Z,7.07
2023-04-16T09:52:49.845Z,6.43
2023-04-16T09:55:19.200Z,7.00
2023-04-16T09:57:47.182Z,6.67
2023-04-16T10:00:19.798Z,6.83
2023-04-16T10:02:49.248Z,6.97
2023-04-16T10:05:21.268Z,7.17
2023-04-16T10:07:49.822Z,8.47
2023-04-16T10:10:18.143Z,7.93
2023-04-16T10:12:46.130Z,6.87
2023-04-16T10:15:14.114Z,6.63
2023-04-16T10:17:42.343Z,7.00
2023-04-16T10:20:11.184Z,7.13
2023-04-16T10:22:40.757Z,7.47
2023-04-16T10:25:09.967Z,7.23
2023-04-16T10:27:38.680Z,7.43
2023-04-16T10:30:09.119Z,7.93
2023-04-16T10:32:38.280Z,7.80
2023-04-16T10:35:07.359Z,9.43
2023-04-16T10:37:35.974Z,8.50
2023-04-16T10:40:23.769Z,6.87
2023-04-16T10:42:58.614Z,6.13
2023-04-16T10:45:33.571Z,7.75
2023-04-16T10:48:06.326Z,7.43
2023-04-16T10:50:37.386Z,6.80
2023-04-16T10:53:26.876Z,7.43
2023-04-16T10:56:00.516Z,7.13
2023-04-16T10:58:28.917Z,6.73
2023-04-16T11:00:56.822Z,6.83
2023-04-16T11:03:24.807Z,7.07
2023-04-16T11:05:52.954Z,7.67
2023-04-16T11:08:21.236Z,6.60
2023-04-16T11:10:49.894Z,6.60
2023-04-16T11:13:20.315Z,7.00
2023-04-16T11:15:49.847Z,6.57
2023-04-16T11:18:20.811Z,7.00
2023-04-16T11:20:48.810Z,7.80
2023-04-16T11:23:16.670Z,7.33
2023-04-16T11:25:45.144Z,7.97
2023-04-16T11:28:13.061Z,7.43
2023-04-16T11:30:42.547Z,6.50
2023-04-16T11:33:11.780Z,7.50
2023-04-16T11:35:40.539Z,7.40
2023-04-16T11:38:08.617Z,7.03
2023-04-16T11:40:36.669Z,7.47
2023-04-16T11:43:13.997Z,8.53
2023-04-16T11:45:58.126Z,10.03
2023-04-16T11:48:26.125Z,8.40
2023-04-16T11:50:58.150Z,7.87
2023-04-16T11:53:26.273Z,7.70
2023-04-16T11:55:54.177Z,7.97
2023-04-16T11:58:23.467Z,7.60
2023-04-16T12:00:56.882Z,7.17
2023-04-16T12:03:39.565Z,6.97
2023-04-16T12:06:09.894Z,7.37
2023-04-16T12:08:37.830Z,7.73
2023-04-16T12:11:06.346Z,9.30
2023-04-16T12:13:39.871Z,8.43
2023-04-16T12:16:21.145Z,8.40
2023-04-16T12:19:03.889Z,9.17
2023-04-16T12:21:39.549Z,9.32
2023-04-16T12:24:08.568Z,7.57
2023-04-16T12:26:41.324Z,5.32
2023-04-16T12:29:23.070Z,8.93
2023-04-16T12:31:53.952Z,7.63
2023-04-16T12:34:28.925Z,7.43
2023-04-16T12:37:11.271Z,9.47
2023-04-16T12:39:39.217Z,6.43
2023-04-16T12:42:09.907Z,6.87
2023-04-16T12:44:38.137Z,7.30
2023-04-16T12:47:07.635Z,8.87
2023-04-16T12:49:37.169Z,7.07
2023-04-16T12:52:06.048Z,7.50
2023-04-16T12:54:34.005Z,7.27
2023-04-16T12:57:01.968Z,6.77
2023-04-16T12:59:29.844Z,8.23
2023-04-16T13:01:57.862Z,16.43
2023-04-16T13:04:27.372Z,10.47
2023-04-16T13:06:55.499Z,9.00
2023-04-16T13:09:23.469Z,9.07
2023-04-16T13:11:51.401Z,10.57
2023-04-16T13:14:19.468Z,6.80
2023-04-16T13:16:47.404Z,6.70
2023-04-16T13:19:15.952Z,6.70
2023-04-16T13:21:45.307Z,7.10
2023-04-16T13:24:13.286Z,7.40
2023-04-16T13:26:41.216Z,7.57
2023-04-16T13:29:09.410Z,7.80
2023-04-16T13:31:37.664Z,7.70
2023-04-16T13:34:06.131Z,7.90
2023-04-16T13:36:34.118Z,6.63
2023-04-16T13:39:04.711Z,7.37
2023-04-16T13:41:32.884Z,8.23
2023-04-16T13:44:00.795Z,9.03
2023-04-16T13:46:29.162Z,9.23
2023-04-16T13:48:57.333Z,6.73
2023-04-16T13:51:25.240Z,8.30
2023-04-16T13:53:53.190Z,8.20
2023-04-16T13:56:22.613Z,8.80
2023-04-16T13:58:50.580Z,7.17
2023-04-16T14:01:18.863Z,8.53
2023-04-16T14:03:46.835Z,8.23
2023-04-16T14:06:15.063Z,7.93
2023-04-16T14:08:43.061Z,7.20
2023-04-16T14:11:11.051Z,7.63
2023-04-16T14:13:40.644Z,7.27
2023-04-16T14:16:08.638Z,6.77
2023-04-16T14:18:41.085Z,6.83
2023-04-16T14:21:09.119Z,6.13
2023-04-16T14:23:37.056Z,7.17
2023-04-16T14:26:05.420Z,6.13
2023-04-16T14:28:33.331Z,7.70
2023-04-16T14:31:03.116Z,7.50
2023-04-16T14:33:31.078Z,6.27
2023-04-16T14:36:01.233Z,6.40
2023-04-16T14:38:31.302Z,7.70
2023-04-16T14:41:00.435Z,6.60
2023-04-16T14:43:28.503Z,8.00
2023-04-16T14:45:57.118Z,8.97
2023-04-16T14:48:26.421Z,10.17
2023-04-16T14:50:54.882Z,9.80
2023-04-16T14:53:24.711Z,8.47
2023-04-16T14:55:53.653Z,7.60
2023-04-16T14:58:21.956Z,7.87
2023-04-16T15:00:49.956Z,7.50
2023-04-16T15:03:18.059Z,8.03
2023-04-16T15:05:50.857Z,7.37
2023-04-16T15:08:21.367Z,8.30
2023-04-16T15:10:49.261Z,10.20
2023-04-16T15:13:17.476Z,9.90
2023-04-16T15:15:45.409Z,8.20
2023-04-16T15:18:13.363Z,7.13
2023-04-16T15:20:41.298Z,7.10
2023-04-16T15:23:10.965Z,7.70
2023-04-16T15:25:38.861Z,6.73
2023-04-16T15:28:06.808Z,6.47
2023-04-16T15:30:34.843Z,8.23
2023-04-16T15:33:02.789Z,6.83
2023-04-16T15:35:30.935Z,6.67
2023-04-16T15:37:58.877Z,6.37
2023-04-16T15:40:28.177Z,7.93
2023-04-16T15:42:56.709Z,8.00
2023-04-16T15:45:24.565Z,8.33
2023-04-16T15:47:52.621Z,8.33
2023-04-16T15:50:21.171Z,8.00
2023-04-16T15:52:49.232Z,6.53
2023-04-16T15:55:18.368Z,7.30
2023-04-16T15:57:47.625Z,7.57
2023-04-16T16:00:17.277Z,8.03
2023-04-16T16:02:47.016Z,7.47
2023-04-16T16:05:15.583Z,7.13
2023-04-16T16:07:44.337Z,7.17
2023-04-16T16:10:14.006Z,6.47
2023-04-16T16:12:42.315Z,6.90
2023-04-16T16:15:12.024Z,6.97
2023-04-16T16:17:40.647Z,6.80
2023-04-16T16:20:10.777Z,6.63
2023-04-16T16:22:39.122Z,7.37
2023-04-16T16:25:08.188Z,7.40
2023-04-16T16:27:36.604Z,6.30
2023-04-16T16:30:07.275Z,7.73
2023-04-16T16:32:37.711Z,6.53
2023-04-16T16:35:06.168Z,6.97
2023-04-16T16:37:34.084Z,7.90
2023-04-16T16:40:01.930Z,7.20
2023-04-16T16:42:29.935Z,8.20
2023-04-16T16:44:57.877Z,7.07
2023-04-16T16:47:26.013Z,6.63
2023-04-16T16:49:55.288Z,7.33
2023-04-16T16:52:24.720Z,7.60
2023-04-16T16:54:52.683Z,7.80
2023-04-16T16:57:20.788Z,6.97
2023-04-16T16:59:50.396Z,6.70
2023-04-16T17:02:18.629Z,6.93
2023-04-16T17:04:46.601Z,7.80
2023-04-16T17:07:16.061Z,7.23
2023-04-16T17:09:44.023Z,7.23
2023-04-16T17:12:11.949Z,6.50
2023-04-16T17:14:39.920Z,6.77
2023-04-16T17:17:07.794Z,7.90
2023-04-16T17:19:35.698Z,7.60
2023-04-16T17:22:05.147Z,6.80
2023-04-16T17:24:34.473Z,6.83
2023-04-16T17:27:03.289Z,7.13
2023-04-16T17:29:31.362Z,7.20
2023-04-16T17:31:59.293Z,7.53
2023-04-16T17:34:27.371Z,7.20
2023-04-16T17:36:55.369Z,7.17
2023-04-16T17:39:23.324Z,7.20
2023-04-16T17:41:54.807Z,7.63
2023-04-16T17:44:25.683Z,7.47
2023-04-16T17:46:53.588Z,7.57
2023-04-16T17:49:21.473Z,7.23
2023-04-16T17:51:49.436Z,6.93
2023-04-16T17:54:17.293Z,7.33
2023-04-16T17:56:46.077Z,7.27
2023-04-16T17:59:15.527Z,7.80
2023-04-16T18:01:44.486Z,9.20
2023-04-16T18:04:12.959Z,6.67
2023-04-16T18:06:41.291Z,5.97
2023-04-16T18:09:09.225Z,6.47
2023-04-16T18:11:37.141Z,7.57
2023-04-16T18:14:05.059Z,7.07
2023-04-16T18:16:34.395Z,6.63
2023-04-16T18:19:02.321Z,6.53
2023-04-16T18:21:30.530Z,6.13
2023-04-16T18:24:00.529Z,6.93
2023-04-16T18:26:29.897Z,6.77
2023-04-16T18:28:58.101Z,6.23
2023-04-16T18:31:26.820Z,8.97
2023-04-16T18:33:57.984Z,7.37
2023-04-16T18:36:27.272Z,6.80
2023-04-16T18:41:27.180Z,6.80
2023-04-16T18:43:55.157Z,5.90
2023-04-16T18:46:23.180Z,5.60
2023-04-16T18:48:51.125Z,6.73
2023-04-16T18:51:20.344Z,6.63
2023-04-16T18:53:48.459Z,5.67
2023-04-16T18:56:16.440Z,6.13
2023-04-16T18:58:44.330Z,5.73
2023-04-16T19:01:14.012Z,7.10
2023-04-16T19:03:42.100Z,5.87
2023-04-16T19:06:10.396Z,6.63
2023-04-16T19:08:39.635Z,6.03
2023-04-16T19:11:07.607Z,5.30
2023-04-16T19:13:35.481Z,5.07
2023-04-16T19:16:06.060Z,5.27
2023-04-16T19:18:34.012Z,5.20
2023-04-16T19:21:02.422Z,5.30
2023-04-16T19:23:30.884Z,4.80
2023-04-16T19:26:01.518Z,5.30
2023-04-16T19:28:29.802Z,5.60
2023-04-16T19:30:57.747Z,6.17
2023-04-16T19:33:25.806Z,5.57
2023-04-16T19:35:53.731Z,5.93
2023-04-16T19:38:21.668Z,4.93
2023-04-16T19:40:50.028Z,6.00
2023-04-16T19:43:19.347Z,5.63
2023-04-16T19:45:52.359Z,5.73
2023-04-16T19:48:20.600Z,5.80
2023-04-16T19:50:49.246Z,5.37
2023-04-16T19:53:17.592Z,5.90
2023-04-16T19:55:45.582Z,5.73
2023-04-16T19:58:14.703Z,6.03
2023-04-16T20:00:44.083Z,5.00
2023-04-16T20:03:12.027Z,6.17
2023-04-16T20:05:39.948Z,6.57
2023-04-16T20:08:07.963Z,5.50
2023-04-16T20:10:36.169Z,6.27
2023-04-16T20:13:04.960Z,8.23
2023-04-16T20:15:32.921Z,6.67
2023-04-16T20:18:02.290Z,5.90
2023-04-16T20:20:30.293Z,5.13
2023-04-16T20:22:59.691Z,6.73
2023-04-16T20:25:29.305Z,6.17
2023-04-16T20:27:57.358Z,6.43
2023-04-16T20:30:29.182Z,5.87
2023-04-16T20:32:57.274Z,5.40
2023-04-16T20:35:27.126Z,6.17
2023-04-16T20:37:55.085Z,6.23
2023-04-16T20:40:24.026Z,6.13
2023-04-16T20:42:52.270Z,5.43
2023-04-16T20:45:20.367Z,5.30
2023-04-16T20:47:48.355Z,5.53
2023-04-16T20:50:16.639Z,6.73
2023-04-16T20:52:45.935Z,6.10
2023-04-16T20:55:13.886Z,5.23
2023-04-16T20:57:41.797Z,5.60
2023-04-16T21:00:12.088Z,5.73
2023-04-16T21:02:40.415Z,6.07
2023-04-16T21:05:13.871Z,5.93
2023-04-16T21:07:42.477Z,6.37
2023-04-16T21:10:12.444Z,6.20
2023-04-16T21:12:40.385Z,5.80
2023-04-16T21:15:09.068Z,5.87
2023-04-16T21:17:36.972Z,5.73
2023-04-16T21:20:07.019Z,5.30
2023-04-16T21:22:34.936Z,6.00
2023-04-16T21:25:02.993Z,5.33
2023-04-16T21:27:32.233Z,5.97
2023-04-16T21:30:00.178Z,5.43
2023-04-16T21:32:28.115Z,5.83
2023-04-16T21:34:56.018Z,5.63
2023-04-16T21:37:23.902Z,6.43
2023-04-16T21:39:51.832Z,6.73
2023-04-16T21:42:19.749Z,4.90
2023-04-16T21:44:49.108Z,5.27
2023-04-16T21:47:17.029Z,5.50
2023-04-16T21:49:45.106Z,5.97
2023-04-16T21:52:14.421Z,5.10
2023-04-16T21:54:42.304Z,5.60
2023-04-16T21:57:10.236Z,6.20
2023-04-16T21:59:38.676Z,5.43
2023-04-16T22:02:08.040Z,6.60
2023-04-16T22:04:38.582Z,6.27
2023-04-16T22:07:08.747Z,5.63
2023-04-16T22:09:36.789Z,5.67
2023-04-16T22:12:07.008Z,6.30
2023-04-16T22:14:36.101Z,5.93
2023-04-16T22:17:04.459Z,6.20
2023-04-16T22:19:34.866Z,6.67
2023-04-16T22:22:02.797Z,5.67
2023-04-16T22:24:30.755Z,6.30
2023-04-16T22:26:58.720Z,6.77
2023-04-16T22:29:26.647Z,5.57
2023-04-16T22:31:55.149Z,5.70
2023-04-16T22:34:23.125Z,5.70
2023-04-16T22:36:52.418Z,5.70
2023-04-16T22:39:20.275Z,6.93
2023-04-16T22:41:48.154Z,6.20
2023-04-16T22:44:16.177Z,5.90
2023-04-16T22:46:45.377Z,5.50
2023-04-16T22:49:13.559Z,5.77
2023-04-16T22:51:41.596Z,5.23
2023-04-16T22:54:13.271Z,4.83
2023-04-16T22:56:42.237Z,6.47
2023-04-16T22:59:10.432Z,5.97
2023-04-16T23:01:38.665Z,5.97
2023-04-16T23:04:06.696Z,5.53
2023-04-16T23:06:34.656Z,5.93
2023-04-16T23:09:02.621Z,6.10
2023-04-16T23:11:31.941Z,5.63
2023-04-16T23:13:59.884Z,5.37
2023-04-16T23:16:28.722Z,5.70
2023-04-16T23:18:56.735Z,5.83
2023-04-16T23:21:24.680Z,5.67
2023-04-16T23:23:52.895Z,6.03
2023-04-16T23:26:20.790Z,6.55
2023-04-16T23:28:50.108Z,6.83
2023-04-16T23:31:18.047Z,5.73
2023-04-16T23:33:45.926Z,6.63
2023-04-16T23:36:13.908Z,6.37
2023-04-16T23:38:41.881Z,6.97
2023-04-16T23:41:09.929Z,6.40
2023-04-16T23:43:40.121Z,5.67
2023-04-16T23:46:09.406Z,5.63
2023-04-16T23:48:37.337Z,6.37
2023-04-16T23:51:05.705Z,5.60
2023-04-16T23:53:33.666Z,6.43
2023-04-16T23:56:01.672Z,5.80
2023-04-16T23:58:29.596Z,6.50
